createdAt,value
2018-02-20T00:01:02.965Z,100556.16
2018-02-20T00:03:30.414Z,100561.77
2018-02-20T00:05:58.124Z,100561.23
2018-02-20T00:08:25.705Z,100552.48
2018-02-20T00:10:53.156Z,100551.34
2018-02-20T00:13:20.628Z,100545.87
2018-02-20T00:15:48.081Z,100548.48
2018-02-20T00:18:16.765Z,100555.11
2018-02-20T00:20:44.224Z,100562.97
2018-02-20T00:23:11.697Z,100561.19
2018-02-20T00:25:39.183Z,100560.99
2018-02-20T00:28:06.640Z,100552.52
2018-02-20T00:30:34.152Z,100554.95
2018-02-20T00:33:01.622Z,100551.39
2018-02-20T00:35:29.081Z,100552.41
2018-02-20T00:37:56.563Z,100543.77
2018-02-20T00:40:24.017Z,100545.05
2018-02-20T00:42:51.721Z,100545.94
2018-02-20T00:45:19.197Z,100545.08
2018-02-20T00:47:46.705Z,100539.11
2018-02-20T00:50:14.174Z,100544.65
2018-02-20T00:52:41.629Z,100544.05
2018-02-20T00:55:09.202Z,100538.20
2018-02-20T00:57:36.668Z,100541.97
2018-02-20T01:00:04.140Z,100540.06
2018-02-20T01:02:31.618Z,100535.93
2018-02-20T01:04:59.086Z,100540.43
2018-02-20T01:07:26.681Z,100539.08
2018-02-20T01:09:54.150Z,100543.40
2018-02-20T01:12:21.614Z,100547.34
2018-02-20T01:14:49.118Z,100540.78
2018-02-20T01:17:16.576Z,100534.59
2018-02-20T01:19:44.141Z,100531.83
2018-02-20T01:22:11.613Z,100530.17
2018-02-20T01:24:39.069Z,100535.91
2018-02-20T01:27:06.540Z,100539.86
2018-02-20T01:29:33.993Z,100539.29
2018-02-20T01:32:01.573Z,100540.59
2018-02-20T01:34:29.029Z,100537.27
2018-02-20T01:36:56.497Z,100537.67
2018-02-20T01:39:24.069Z,100538.97
2018-02-20T01:41:51.517Z,100533.92
2018-02-20T01:44:19.021Z,100529.30
2018-02-20T01:46:46.481Z,100531.00
2018-02-20T01:49:13.930Z,100529.88
2018-02-20T01:51:41.417Z,100539.89
2018-02-20T01:54:08.877Z,100528.82
2018-02-20T01:56:36.353Z,100535.77
2018-02-20T01:59:03.805Z,100540.86
2018-02-20T02:01:31.256Z,100546.78
2018-02-20T02:03:58.776Z,100543.62
2018-02-20T02:06:26.308Z,100544.36
2018-02-20T02:08:54.087Z,100545.09
2018-02-20T02:11:21.542Z,100543.36
2018-02-20T02:13:48.993Z,100542.78
2018-02-20T02:16:16.997Z,100543.20
2018-02-20T02:18:44.447Z,100542.39
2018-02-20T02:21:11.937Z,100544.12
2018-02-20T02:23:39.392Z,100543.50
2018-02-20T02:26:06.841Z,100542.95
2018-02-20T02:28:34.333Z,100539.77
2018-02-20T02:31:01.800Z,100537.31
2018-02-20T02:33:29.481Z,100533.06
2018-02-20T02:35:56.945Z,100535.12
2018-02-20T02:38:24.406Z,100531.08
2018-02-20T02:40:51.880Z,100531.13
2018-02-20T02:43:19.334Z,100534.19
2018-02-20T02:45:46.984Z,100523.17
2018-02-20T02:48:14.457Z,100526.81
2018-02-20T02:50:41.912Z,100515.28
2018-02-20T02:53:09.393Z,100521.19
2018-02-20T02:55:36.845Z,100523.62
2018-02-20T02:58:04.571Z,100515.82
2018-02-20T03:00:32.125Z,100522.84
2018-02-20T03:02:59.753Z,100520.52
2018-02-20T03:05:27.231Z,100515.07
2018-02-20T03:07:54.692Z,100515.31
2018-02-20T03:10:22.425Z,100518.37
2018-02-20T03:12:49.930Z,100511.89
2018-02-20T03:15:17.381Z,100517.70
2018-02-20T03:17:44.870Z,100522.34
2018-02-20T03:20:12.329Z,100517.73
2018-02-20T03:22:39.981Z,100516.86
2018-02-20T03:25:07.453Z,100511.87
2018-02-20T03:27:34.906Z,100510.06
2018-02-20T03:30:02.399Z,100517.42
2018-02-20T03:32:29.854Z,100518.70
2018-02-20T03:34:57.326Z,100519.91
2018-02-20T03:37:24.787Z,100517.29
2018-02-20T03:39:52.239Z,100516.02
2018-02-20T03:42:19.737Z,100516.14
2018-02-20T03:44:47.200Z,100517.48
2018-02-20T03:47:14.704Z,100518.80
2018-02-20T03:49:42.268Z,100519.68
2018-02-20T03:52:09.801Z,100514.75
2018-02-20T03:54:37.284Z,100519.11
2018-02-20T03:57:04.737Z,100519.13
2018-02-20T03:59:32.340Z,100515.66
2018-02-20T04:02:00.047Z,100515.05
2018-02-20T04:04:27.509Z,100515.33
2018-02-20T04:06:55.014Z,100519.30
2018-02-20T04:09:22.477Z,100512.36
2018-02-20T04:11:49.965Z,100510.16
2018-02-20T04:14:17.452Z,100520.36
2018-02-20T04:16:44.907Z,100520.95
2018-02-20T04:19:12.381Z,100519.59
2018-02-20T04:21:39.833Z,100519.22
2018-02-20T04:24:07.441Z,100518.00
2018-02-20T04:26:34.897Z,100525.34
2018-02-20T04:29:02.357Z,100518.63
2018-02-20T04:31:29.844Z,100516.77
2018-02-20T04:33:57.320Z,100516.73
2018-02-20T04:36:24.988Z,100528.17
2018-02-20T04:38:52.445Z,100522.69
2018-02-20T04:41:19.910Z,100526.27
2018-02-20T04:43:47.393Z,100526.36
2018-02-20T04:46:14.849Z,100524.69
2018-02-20T04:48:42.780Z,100530.81
2018-02-20T04:51:10.277Z,100528.92
2018-02-20T04:53:37.726Z,100525.32
2018-02-20T04:56:05.218Z,100530.24
2018-02-20T04:58:32.673Z,100527.50
2018-02-20T05:01:00.628Z,100531.27
2018-02-20T05:03:28.089Z,100536.51
2018-02-20T05:05:55.541Z,100539.20
2018-02-20T05:08:23.017Z,100539.09
2018-02-20T05:10:50.473Z,100539.73
2018-02-20T05:13:18.057Z,100547.76
2018-02-20T05:15:45.545Z,100541.84
2018-02-20T05:18:13.002Z,100547.36
2018-02-20T05:20:40.493Z,100546.19
2018-02-20T05:23:07.962Z,100548.09
2018-02-20T05:25:35.444Z,100551.57
2018-02-20T05:28:02.901Z,100549.69
2018-02-20T05:30:30.401Z,100556.37
2018-02-20T05:32:57.881Z,100552.08
2018-02-20T05:35:25.355Z,100554.12
2018-02-20T05:37:52.957Z,100547.74
2018-02-20T05:40:20.432Z,100554.81
2018-02-20T05:42:47.929Z,100550.48
2018-02-20T05:45:15.400Z,100548.86
2018-02-20T05:47:43.065Z,100553.98
2018-02-20T05:50:10.943Z,100556.58
2018-02-20T05:52:38.393Z,100560.45
2018-02-20T05:55:05.878Z,100562.17
2018-02-20T05:57:33.388Z,100570.30
2018-02-20T06:00:01.216Z,100566.75
2018-02-20T06:02:28.901Z,100566.30
2018-02-20T06:04:56.353Z,100573.63
2018-02-20T06:07:23.814Z,100571.25
2018-02-20T06:09:51.289Z,100577.02
2018-02-20T06:12:18.737Z,100570.89
2018-02-20T06:14:46.338Z,100573.67
2018-02-20T06:17:13.795Z,100577.73
2018-02-20T06:19:41.254Z,100573.05
2018-02-20T06:22:08.725Z,100578.36
2018-02-20T06:24:36.181Z,100582.25
2018-02-20T06:27:04.001Z,100581.34
2018-02-20T06:29:31.485Z,100585.27
2018-02-20T06:31:58.937Z,100586.10
2018-02-20T06:34:26.602Z,100587.63
2018-02-20T06:36:54.121Z,100583.16
2018-02-20T06:39:21.753Z,100589.15
2018-02-20T06:41:49.202Z,100587.43
2018-02-20T06:44:16.660Z,100587.59
2018-02-20T06:46:44.450Z,100587.50
2018-02-20T06:49:11.913Z,100584.88
2018-02-20T06:51:39.604Z,100588.42
2018-02-20T06:54:07.058Z,100592.33
2018-02-20T06:56:34.584Z,100590.17
2018-02-20T06:59:02.017Z,100592.84
2018-02-20T07:01:29.474Z,100586.27
2018-02-20T07:03:57.058Z,100587.13
2018-02-20T07:06:24.581Z,100584.41
2018-02-20T07:08:52.038Z,100589.95
2018-02-20T07:11:19.577Z,100589.34
2018-02-20T07:13:47.037Z,100584.68
2018-02-20T07:16:14.521Z,100587.59
2018-02-20T07:18:41.994Z,100585.27
2018-02-20T07:21:09.441Z,100587.31
2018-02-20T07:23:36.916Z,100590.23
2018-02-20T07:26:04.397Z,100592.87
2018-02-20T07:28:31.930Z,100591.20
2018-02-20T07:30:59.394Z,100589.47
2018-02-20T07:33:27.345Z,100588.55
2018-02-20T07:35:55.221Z,100583.45
2018-02-20T07:38:22.677Z,100582.60
2018-02-20T07:40:50.331Z,100583.04
2018-02-20T07:43:17.808Z,100584.89
2018-02-20T07:45:45.274Z,100588.98
2018-02-20T07:48:12.773Z,100590.84
2018-02-20T07:50:40.260Z,100594.23
2018-02-20T07:53:07.977Z,100592.02
2018-02-20T07:55:35.440Z,100596.96
2018-02-20T07:58:02.895Z,100593.18
2018-02-20T08:00:30.380Z,100596.14
2018-02-20T08:02:57.853Z,100584.56
2018-02-20T08:05:25.353Z,100584.20
2018-02-20T08:07:52.832Z,100581.62
2018-02-20T08:10:20.291Z,100578.03
2018-02-20T08:12:47.797Z,100577.00
2018-02-20T08:15:15.292Z,100572.39
2018-02-20T08:17:42.765Z,100565.55
2018-02-20T08:20:10.651Z,100567.85
2018-02-20T08:22:38.179Z,100565.72
2018-02-20T08:25:05.683Z,100571.24
2018-02-20T08:27:33.191Z,100565.75
2018-02-20T08:30:00.722Z,100563.73
2018-02-20T08:32:28.189Z,100563.07
2018-02-20T08:34:55.668Z,100562.34
2018-02-20T08:37:23.137Z,100563.37
2018-02-20T08:39:50.619Z,100574.52
2018-02-20T08:42:18.127Z,100566.75
2018-02-20T08:44:45.601Z,100567.34
2018-02-20T08:47:13.053Z,100567.83
2018-02-20T08:49:40.544Z,100569.58
2018-02-20T08:52:07.997Z,100576.59
2018-02-20T08:54:35.660Z,100574.75
2018-02-20T08:57:03.136Z,100573.39
2018-02-20T08:59:30.770Z,100573.41
2018-02-20T09:01:58.304Z,100572.70
2018-02-20T09:04:25.760Z,100572.69
2018-02-20T09:06:53.245Z,100575.70
2018-02-20T09:09:20.740Z,100575.98
2018-02-20T09:11:48.202Z,100572.36
2018-02-20T09:14:15.688Z,100567.40
2018-02-20T09:16:43.168Z,100565.91
2018-02-20T09:19:10.837Z,100569.79
2018-02-20T09:21:38.313Z,100561.55
2018-02-20T09:24:05.765Z,100562.91
2018-02-20T09:26:33.236Z,100564.64
2018-02-20T09:29:00.732Z,100559.19
2018-02-20T09:31:28.221Z,100559.72
2018-02-20T09:33:55.677Z,100558.69
2018-02-20T09:36:23.146Z,100557.36
2018-02-20T09:38:50.650Z,100557.67
2018-02-20T09:41:18.125Z,100557.91
2018-02-20T09:43:45.599Z,100561.76
2018-02-20T09:46:13.054Z,100555.61
2018-02-20T09:48:40.507Z,100558.95
2018-02-20T09:51:07.980Z,100555.17
2018-02-20T09:53:35.473Z,100559.45
2018-02-20T09:56:03.197Z,100564.20
2018-02-20T09:58:30.647Z,100564.30
2018-02-20T10:00:58.103Z,100562.13
2018-02-20T10:03:25.605Z,100562.72
2018-02-20T10:05:53.182Z,100561.12
2018-02-20T10:08:20.681Z,100564.39
2018-02-20T10:10:48.129Z,100566.13
2018-02-20T10:13:15.614Z,100571.05
2018-02-20T10:15:43.114Z,100571.34
2018-02-20T10:18:10.617Z,100574.97
2018-02-20T10:20:38.126Z,100576.81
2018-02-20T10:23:05.654Z,100579.80
2018-02-20T10:25:33.121Z,100569.84
2018-02-20T10:28:00.593Z,100576.37
2018-02-20T10:30:28.050Z,100578.73
2018-02-20T10:32:55.547Z,100579.08
2018-02-20T10:35:23.020Z,100576.01
2018-02-20T10:37:50.473Z,100579.16
2018-02-20T10:40:17.960Z,100572.59
2018-02-20T10:42:45.429Z,100567.79
2018-02-20T10:45:13.313Z,100566.21
2018-02-20T10:47:40.765Z,100566.91
2018-02-20T10:50:08.236Z,100562.66
2018-02-20T10:52:35.986Z,100559.15
2018-02-20T10:55:03.462Z,100560.28
2018-02-20T10:57:31.268Z,100554.33
2018-02-20T10:59:58.726Z,100554.77
2018-02-20T11:02:26.177Z,100555.69
2018-02-20T11:04:53.654Z,100550.03
2018-02-20T11:07:21.103Z,100541.77
2018-02-20T11:09:48.737Z,100538.72
2018-02-20T11:12:16.207Z,100543.92
2018-02-20T11:14:43.679Z,100539.56
2018-02-20T11:17:11.577Z,100545.27
2018-02-20T11:19:39.065Z,100539.59
2018-02-20T11:22:06.551Z,100549.63
2018-02-20T11:24:34.003Z,100547.88
2018-02-20T11:27:01.452Z,100543.06
2018-02-20T11:29:28.947Z,100538.72
2018-02-20T11:31:56.405Z,100531.24
2018-02-20T11:34:23.943Z,100529.94
2018-02-20T11:36:51.393Z,100526.86
2018-02-20T11:39:18.841Z,100528.16
2018-02-20T11:41:46.314Z,100524.23
2018-02-20T11:46:40.592Z,100527.73
2018-02-20T11:49:08.094Z,100523.81
2018-02-20T11:51:35.680Z,100518.98
2018-02-20T11:54:03.889Z,100518.52
2018-02-20T11:56:31.341Z,100514.59
2018-02-20T11:58:59.025Z,100513.70
2018-02-20T12:01:26.491Z,100505.30
2018-02-20T12:03:53.938Z,100506.25
2018-02-20T12:06:21.413Z,100500.53
2018-02-20T12:08:48.865Z,100506.26
2018-02-20T12:11:16.418Z,100504.95
2018-02-20T12:13:43.906Z,100505.81
2018-02-20T12:16:11.369Z,100497.02
2018-02-20T12:18:38.842Z,100500.98
2018-02-20T12:21:06.302Z,100502.29
2018-02-20T12:23:34.091Z,100504.46
2018-02-20T12:26:01.633Z,100496.99
2018-02-20T12:28:29.110Z,100502.69
2018-02-20T12:30:56.609Z,100494.36
2018-02-20T12:33:24.054Z,100490.71
2018-02-20T12:35:51.713Z,100497.80
2018-02-20T12:38:19.168Z,100494.66
2018-02-20T12:40:46.637Z,100495.11
2018-02-20T12:43:14.145Z,100486.27
2018-02-20T12:45:41.593Z,100492.16
2018-02-20T12:48:09.100Z,100489.56
2018-02-20T12:50:37.781Z,100491.30
2018-02-20T12:53:05.233Z,100484.67
2018-02-20T12:55:32.705Z,100487.34
2018-02-20T12:58:00.165Z,100484.28
2018-02-20T13:00:27.947Z,100479.43
2018-02-20T13:02:55.649Z,100481.13
2018-02-20T13:05:23.101Z,100482.07
2018-02-20T13:07:50.592Z,100477.63
2018-02-20T13:10:18.061Z,100476.67
2018-02-20T13:12:45.781Z,100487.19
2018-02-20T13:15:13.239Z,100488.05
2018-02-20T13:17:40.709Z,100490.22
2018-02-20T13:20:08.329Z,100488.06
2018-02-20T13:22:35.781Z,100488.88
2018-02-20T13:25:03.467Z,100481.49
2018-02-20T13:27:30.950Z,100481.92
2018-02-20T13:29:58.396Z,100481.52
2018-02-20T13:32:25.880Z,100478.00
2018-02-20T13:34:53.348Z,100480.16
2018-02-20T13:37:21.808Z,100483.56
2018-02-20T13:39:49.358Z,100483.15
2018-02-20T13:42:16.809Z,100477.11
2018-02-20T13:44:44.282Z,100485.03
2018-02-20T13:47:11.730Z,100480.27
2018-02-20T13:49:39.519Z,100479.31
2018-02-20T13:52:07.013Z,100485.78
2018-02-20T13:54:34.465Z,100474.37
2018-02-20T13:57:01.936Z,100475.36
2018-02-20T13:59:29.381Z,100467.25
2018-02-20T14:01:56.857Z,100471.53
2018-02-20T14:04:24.309Z,100470.17
2018-02-20T14:06:51.754Z,100469.83
2018-02-20T14:09:19.248Z,100469.81
2018-02-20T14:11:46.693Z,100461.39
2018-02-20T14:14:14.292Z,100467.34
2018-02-20T14:16:41.736Z,100464.34
2018-02-20T14:19:09.219Z,100468.00
2018-02-20T14:21:36.693Z,100461.92
2018-02-20T14:24:04.161Z,100460.70
2018-02-20T14:26:31.809Z,100456.63
2018-02-20T14:28:59.269Z,100462.66
2018-02-20T14:31:26.749Z,100459.94
2018-02-20T14:33:54.222Z,100463.09
2018-02-20T14:36:21.717Z,100466.88
2018-02-20T14:38:49.369Z,100461.22
2018-02-20T14:41:16.836Z,100459.49
2018-02-20T14:43:44.352Z,100466.97
2018-02-20T14:46:11.821Z,100462.19
2018-02-20T14:48:39.374Z,100466.16
2018-02-20T14:51:06.845Z,100468.36
2018-02-20T14:53:34.292Z,100460.82
2018-02-20T14:56:01.824Z,100463.94
2018-02-20T14:58:29.302Z,100460.39
2018-02-20T15:00:57.655Z,100465.29
2018-02-20T15:03:25.350Z,100460.69
2018-02-20T15:05:52.820Z,100464.27
2018-02-20T15:08:20.321Z,100454.64
2018-02-20T15:10:47.774Z,100458.25
2018-02-20T15:13:15.248Z,100455.23
2018-02-20T15:15:43.060Z,100456.53
2018-02-20T15:18:10.513Z,100456.93
2018-02-20T15:20:37.973Z,100459.12
2018-02-20T15:23:05.449Z,100455.56
2018-02-20T15:25:32.914Z,100464.44
2018-02-20T15:28:00.401Z,100457.87
2018-02-20T15:30:27.854Z,100459.17
2018-02-20T15:32:55.330Z,100467.97
2018-02-20T15:35:22.802Z,100469.70
2018-02-20T15:37:50.265Z,100464.00
2018-02-20T15:40:17.945Z,100466.69
2018-02-20T15:42:45.409Z,100465.75
2018-02-20T15:45:12.866Z,100472.36
2018-02-20T15:47:41.022Z,100474.95
2018-02-20T15:50:08.530Z,100478.08
2018-02-20T15:52:36.026Z,100481.58
2018-02-20T15:55:03.477Z,100484.65
2018-02-20T15:57:30.998Z,100480.30
2018-02-20T15:59:58.601Z,100478.52
2018-02-20T16:02:26.056Z,100492.60
2018-02-20T16:04:53.597Z,100495.25
2018-02-20T16:07:21.060Z,100497.05
2018-02-20T16:09:48.506Z,100504.04
2018-02-20T16:12:16.322Z,100513.27
2018-02-20T16:14:43.781Z,100512.83
2018-02-20T16:17:11.406Z,100519.86
2018-02-20T16:19:38.878Z,100518.10
2018-02-20T16:22:06.330Z,100523.78
2018-02-20T16:24:33.797Z,100522.47
2018-02-20T16:27:01.251Z,100529.92
2018-02-20T16:29:28.730Z,100528.59
2018-02-20T16:31:56.292Z,100535.64
2018-02-20T16:34:23.745Z,100542.23
2018-02-20T16:36:51.237Z,100541.32
2018-02-20T16:39:18.721Z,100546.97
2018-02-20T16:41:46.207Z,100550.88
2018-02-20T16:44:13.665Z,100553.98
2018-02-20T16:46:41.117Z,100551.79
2018-02-20T16:49:08.666Z,100560.95
2018-02-20T16:51:36.133Z,100556.08
2018-02-20T16:54:04.685Z,100557.34
2018-02-20T16:56:32.129Z,100570.03
2018-02-20T16:59:00.157Z,100569.59
2018-02-20T17:01:27.625Z,100573.91
2018-02-20T17:03:55.081Z,100572.09
2018-02-20T17:06:22.814Z,100573.75
2018-02-20T17:08:50.281Z,100573.31
2018-02-20T17:11:18.537Z,100574.56
2018-02-20T17:13:46.005Z,100582.41
2018-02-20T17:16:13.528Z,100582.33
2018-02-20T17:18:41.013Z,100585.30
2018-02-20T17:21:08.475Z,100582.73
2018-02-20T17:23:35.953Z,100586.13
2018-02-20T17:26:03.430Z,100591.23
2018-02-20T17:28:30.877Z,100587.73
2018-02-20T17:30:58.351Z,100593.81
2018-02-20T17:33:25.808Z,100599.50
2018-02-20T17:35:53.273Z,100602.05
2018-02-20T17:38:20.834Z,100603.69
2018-02-20T17:40:48.316Z,100604.56
2018-02-20T17:43:16.026Z,100614.52
2018-02-20T17:45:43.571Z,100613.13
2018-02-20T17:48:11.029Z,100613.94
2018-02-20T17:50:38.505Z,100616.93
2018-02-20T17:53:06.094Z,100620.00
2018-02-20T17:55:33.561Z,100622.52
2018-02-20T17:58:01.281Z,100627.30
2018-02-20T18:00:28.733Z,100624.25
2018-02-20T18:02:56.201Z,100640.83
2018-02-20T18:05:23.965Z,100639.18
2018-02-20T18:07:51.414Z,100646.89
2018-02-20T18:10:18.897Z,100642.10
2018-02-20T18:12:46.426Z,100643.61
2018-02-20T18:15:13.944Z,100645.26
2018-02-20T18:17:41.428Z,100648.43
2018-02-20T18:20:08.886Z,100662.25
2018-02-20T18:22:36.528Z,100660.58
2018-02-20T18:25:04.121Z,100663.81
2018-02-20T18:27:31.862Z,100658.88
2018-02-20T18:29:59.346Z,100662.70
2018-02-20T18:32:26.794Z,100666.71
2018-02-20T18:34:54.358Z,100669.41
2018-02-20T18:37:21.829Z,100671.86
2018-02-20T18:39:49.464Z,100679.97
2018-02-20T18:42:16.945Z,100681.69
2018-02-20T18:44:44.397Z,100688.23
2018-02-20T18:47:11.910Z,100687.28
2018-02-20T18:49:39.362Z,100686.75
2018-02-20T18:52:06.863Z,100691.59
2018-02-20T18:54:34.321Z,100694.44
2018-02-20T18:57:01.989Z,100698.41
2018-02-20T18:59:29.477Z,100696.20
2018-02-20T19:01:56.925Z,100695.58
2018-02-20T19:04:24.399Z,100697.31
2018-02-20T19:06:51.864Z,100698.70
2018-02-20T19:09:19.346Z,100696.17
2018-02-20T19:11:46.807Z,100702.98
2018-02-20T19:14:14.278Z,100703.17
2018-02-20T19:16:41.773Z,100696.31
2018-02-20T19:19:09.227Z,100695.52
2018-02-20T19:21:36.976Z,100697.33
2018-02-20T19:24:04.437Z,100693.08
2018-02-20T19:26:31.911Z,100696.63
2018-02-20T19:28:59.377Z,100699.25
2018-02-20T19:31:26.827Z,100696.75
2018-02-20T19:33:54.696Z,100711.37
2018-02-20T19:36:22.237Z,100705.64
2018-02-20T19:38:49.685Z,100711.52
2018-02-20T19:41:17.153Z,100709.80
2018-02-20T19:43:44.609Z,100708.70
2018-02-20T19:46:12.472Z,100711.92
2018-02-20T19:48:39.974Z,100713.55
2018-02-20T19:51:07.447Z,100711.84
2018-02-20T19:53:34.954Z,100712.15
2018-02-20T19:56:02.511Z,100716.99
2018-02-20T19:58:30.544Z,100718.62
2018-02-20T20:00:57.989Z,100715.22
2018-02-20T20:03:25.459Z,100707.89
2018-02-20T20:05:52.931Z,100716.61
2018-02-20T20:08:20.389Z,100720.80
2018-02-20T20:10:48.009Z,100714.36
2018-02-20T20:13:15.488Z,100719.59
2018-02-20T20:15:43.205Z,100712.79
2018-02-20T20:18:10.693Z,100714.91
2018-02-20T20:20:38.385Z,100715.89
2018-02-20T20:23:06.057Z,100721.28
2018-02-20T20:25:33.513Z,100721.76
2018-02-20T20:28:01.333Z,100723.45
2018-02-20T20:30:28.805Z,100723.96
2018-02-20T20:32:56.255Z,100725.75
2018-02-20T20:35:23.800Z,100731.42
2018-02-20T20:37:51.252Z,100732.86
2018-02-20T20:40:18.726Z,100733.54
2018-02-20T20:42:46.209Z,100735.59
2018-02-20T20:45:14.198Z,100734.71
2018-02-20T20:47:41.998Z,100743.55
2018-02-20T20:50:09.449Z,100742.63
2018-02-20T20:52:37.109Z,100745.60
2018-02-20T20:55:04.583Z,100750.31
2018-02-20T20:57:32.155Z,100745.26
2018-02-20T20:59:59.674Z,100747.13
2018-02-20T21:02:27.149Z,100746.08
2018-02-20T21:04:54.647Z,100746.09
2018-02-20T21:07:22.110Z,100743.51
2018-02-20T21:09:49.565Z,100747.25
2018-02-20T21:12:18.011Z,100753.47
2018-02-20T21:14:45.461Z,100757.84
2018-02-20T21:17:12.909Z,100752.53
2018-02-20T21:19:40.373Z,100753.81
2018-02-20T21:22:07.834Z,100758.61
2018-02-20T21:24:35.333Z,100757.95
2018-02-20T21:27:02.802Z,100759.40
2018-02-20T21:29:30.401Z,100762.42
2018-02-20T21:31:57.902Z,100766.52
2018-02-20T21:34:25.349Z,100762.68
2018-02-20T21:36:52.999Z,100763.56
2018-02-20T21:39:20.713Z,100760.82
2018-02-20T21:41:48.180Z,100757.88
2018-02-20T21:44:15.916Z,100759.08
2018-02-20T21:46:43.418Z,100753.86
2018-02-20T21:49:10.917Z,100756.03
2018-02-20T21:51:38.369Z,100756.50
2018-02-20T21:54:05.819Z,100765.13
2018-02-20T21:56:33.401Z,100763.38
2018-02-20T21:59:00.905Z,100769.88
2018-02-20T22:01:28.494Z,100775.06
2018-02-20T22:03:56.061Z,100774.17
2018-02-20T22:06:23.514Z,100775.95
2018-02-20T22:08:51.012Z,100776.11
2018-02-20T22:11:18.481Z,100775.28
2018-02-20T22:13:45.982Z,100783.42
2018-02-20T22:16:13.423Z,100786.61
2018-02-20T22:18:40.968Z,100780.38
2018-02-20T22:21:08.438Z,100787.80
2018-02-20T22:23:35.908Z,100789.12
2018-02-20T22:26:03.395Z,100791.42
2018-02-20T22:28:30.879Z,100787.47
2018-02-20T22:30:58.352Z,100797.10
2018-02-20T22:33:25.818Z,100791.78
2018-02-20T22:35:53.264Z,100797.83
2018-02-20T22:38:21.077Z,100804.59
2018-02-20T22:40:48.546Z,100814.64
2018-02-20T22:43:16.586Z,100804.02
2018-02-20T22:45:44.099Z,100803.67
2018-02-20T22:48:11.549Z,100802.42
2018-02-20T22:50:39.022Z,100802.81
2018-02-20T22:53:06.481Z,100803.22
2018-02-20T22:55:34.187Z,100809.27
2018-02-20T22:58:01.654Z,100814.45
2018-02-20T23:00:29.117Z,100810.91
2018-02-20T23:02:56.624Z,100814.73
2018-02-20T23:05:24.068Z,100816.58
2018-02-20T23:07:51.568Z,100821.23
2018-02-20T23:10:19.022Z,100828.17
2018-02-20T23:12:46.477Z,100825.75
2018-02-20T23:15:13.974Z,100829.63
2018-02-20T23:17:41.417Z,100828.23
2018-02-20T23:20:08.893Z,100831.63
2018-02-20T23:22:36.340Z,100834.56
2018-02-20T23:25:03.797Z,100838.62
2018-02-20T23:27:31.297Z,100842.33
2018-02-20T23:29:58.741Z,100836.98
2018-02-20T23:32:26.506Z,100841.88
2018-02-20T23:34:53.961Z,100844.16
2018-02-20T23:37:21.420Z,100852.02
2018-02-20T23:39:48.884Z,100851.50
2018-02-20T23:42:16.738Z,100853.36
2018-02-20T23:44:44.602Z,100853.13
2018-02-20T23:47:12.050Z,100849.33
2018-02-20T23:49:39.502Z,100852.69
2018-02-20T23:52:06.973Z,100859.00
2018-02-20T23:54:34.421Z,100858.03
2018-02-20T23:57:01.912Z,100860.56
2018-02-20T23:59:29.357Z,100861.91
